createdAt,value
2016-05-31T00:00:07.203Z,16.33
2016-05-31T00:00:17.203Z,16.31
2016-05-31T00:00:27.203Z,16.39
2016-05-31T00:00:37.203Z,16.33
2016-05-31T00:00:47.221Z,16.35
2016-05-31T00:00:57.221Z,16.39
2016-05-31T00:01:07.080Z,16.3
2016-05-31T00:01:17.252Z,16.33
2016-05-31T00:01:27.236Z,16.33
2016-05-31T00:01:37.236Z,16.35
2016-05-31T00:01:47.255Z,16.39
2016-05-31T00:01:57.255Z,16.39
2016-05-31T00:02:07.255Z,16.33
2016-05-31T00:02:17.270Z,16.39
2016-05-31T00:02:27.114Z,16.39
2016-05-31T00:02:37.286Z,16.38
2016-05-31T00:02:47.133Z,16.31
2016-05-31T00:02:57.289Z,16.38
2016-05-31T00:03:07.320Z,16.33
2016-05-31T00:03:17.305Z,16.33
2016-05-31T00:03:27.305Z,16.35
2016-05-31T00:03:37.320Z,16.33
2016-05-31T00:03:47.322Z,16.35
2016-05-31T00:03:57.322Z,16.31
2016-05-31T00:04:07.338Z,16.27
2016-05-31T00:04:17.338Z,16.35
2016-05-31T00:04:27.354Z,16.43
2016-05-31T00:04:37.354Z,16.3
2016-05-31T00:04:47.357Z,16.28
2016-05-31T00:04:57.357Z,16.27
2016-05-31T00:05:07.357Z,16.27
2016-05-31T00:05:17.372Z,16.31
2016-05-31T00:05:27.372Z,16.27
2016-05-31T00:05:37.372Z,16.35
2016-05-31T00:05:47.391Z,16.33
2016-05-31T00:05:57.391Z,16.24
2016-05-31T00:06:07.391Z,16.34
2016-05-31T00:06:17.391Z,16.31
2016-05-31T00:06:27.406Z,16.35
2016-05-31T00:06:37.406Z,16.31
2016-05-31T00:06:47.408Z,16.3
2016-05-31T00:06:57.268Z,16.25
2016-05-31T00:07:07.424Z,16.24
2016-05-31T00:07:18.002Z,16.27
2016-05-31T00:07:27.268Z,16.27
2016-05-31T00:07:38.408Z,16.3
2016-05-31T00:07:47.740Z,16.27
2016-05-31T00:07:57.818Z,16.25
2016-05-31T00:08:07.458Z,16.25
2016-05-31T00:08:17.302Z,16.31
2016-05-31T00:08:27.365Z,16.28
2016-05-31T00:08:37.318Z,16.33
2016-05-31T00:08:47.493Z,16.25
2016-05-31T00:08:57.493Z,16.28
2016-05-31T00:09:07.493Z,16.27
2016-05-31T00:09:17.493Z,16.28
2016-05-31T00:09:27.508Z,16.25
2016-05-31T00:09:37.524Z,16.23
2016-05-31T00:09:47.511Z,16.27
2016-05-31T00:09:57.527Z,16.27
2016-05-31T00:10:07.527Z,16.25
2016-05-31T00:10:17.527Z,16.3
2016-05-31T00:10:27.542Z,16.24
2016-05-31T00:10:37.542Z,16.27
2016-05-31T00:10:47.544Z,16.27
2016-05-31T00:10:57.544Z,16.25
2016-05-31T00:11:07.560Z,16.28
2016-05-31T00:11:17.576Z,16.24
2016-05-31T00:11:27.560Z,16.3
2016-05-31T00:11:37.576Z,16.24
2016-05-31T00:11:47.579Z,16.24
2016-05-31T00:11:57.594Z,16.3
2016-05-31T00:12:07.594Z,16.24
2016-05-31T00:12:17.594Z,16.33
2016-05-31T00:12:27.610Z,16.25
2016-05-31T00:12:37.610Z,16.27
2016-05-31T00:12:47.612Z,16.27
2016-05-31T00:12:57.628Z,16.28
2016-05-31T00:13:07.628Z,16.25
2016-05-31T00:13:17.628Z,16.2
2016-05-31T00:13:27.643Z,16.28
2016-05-31T00:13:37.643Z,16.27
2016-05-31T00:13:47.646Z,16.3
2016-05-31T00:13:57.646Z,16.23
2016-05-31T00:14:07.677Z,16.23
2016-05-31T00:14:17.662Z,16.31
2016-05-31T00:14:27.677Z,16.28
2016-05-31T00:14:37.677Z,16.14
2016-05-31T00:14:47.680Z,16.27
2016-05-31T00:14:57.524Z,16.2
2016-05-31T00:15:07.696Z,16.23
2016-05-31T00:15:17.696Z,16.25
2016-05-31T00:15:27.696Z,16.2
2016-05-31T00:15:37.696Z,16.11
2016-05-31T00:15:47.715Z,16.27
2016-05-31T00:15:57.715Z,16.11
2016-05-31T00:16:07.715Z,16.2
2016-05-31T00:16:17.730Z,16.21
2016-05-31T00:16:27.730Z,16.11
2016-05-31T00:16:37.730Z,16.12
2016-05-31T00:16:47.748Z,16.23
2016-05-31T00:16:57.748Z,16.17
2016-05-31T00:17:07.779Z,16.17
2016-05-31T00:17:17.764Z,16.23
2016-05-31T00:17:27.764Z,16.14
2016-05-31T00:17:37.779Z,16.14
2016-05-31T00:17:47.781Z,16.09
2016-05-31T00:17:57.781Z,16.14
2016-05-31T00:18:07.781Z,16.23
2016-05-31T00:18:17.797Z,16.24
2016-05-31T00:18:27.797Z,16.24
2016-05-31T00:18:37.797Z,16.24
2016-05-31T00:18:47.816Z,16.2
2016-05-31T00:18:57.832Z,16.15
2016-05-31T00:19:07.676Z,16.15
2016-05-31T00:19:17.832Z,16.15
2016-05-31T00:19:27.832Z,16.12
2016-05-31T00:19:37.848Z,16.11
2016-05-31T00:19:47.835Z,16.15
2016-05-31T00:19:57.851Z,16.11
2016-05-31T00:20:07.851Z,16.08
2016-05-31T00:20:17.882Z,16.15
2016-05-31T00:20:27.866Z,16.15
2016-05-31T00:20:37.882Z,16.05
2016-05-31T00:20:47.884Z,16.11
2016-05-31T00:20:57.884Z,16.2
2016-05-31T00:21:07.884Z,16.14
2016-05-31T00:21:17.884Z,16.12
2016-05-31T00:21:27.900Z,16.08
2016-05-31T00:21:37.900Z,16.15
2016-05-31T00:21:47.917Z,16.12
2016-05-31T00:21:57.933Z,16.2
2016-05-31T00:22:07.917Z,16.15
2016-05-31T00:22:17.777Z,16.17
2016-05-31T00:22:27.948Z,16.17
2016-05-31T00:22:37.933Z,16.14
2016-05-31T00:22:47.811Z,16.08
2016-05-31T00:22:57.795Z,16.15
2016-05-31T00:23:07.795Z,16.12
2016-05-31T00:23:17.951Z,16.12
2016-05-31T00:23:27.811Z,16.04
2016-05-31T00:23:37.967Z,16.09
2016-05-31T00:23:47.969Z,16.04
2016-05-31T00:23:57.985Z,16.07
2016-05-31T00:24:07.985Z,16.05
2016-05-31T00:24:18.000Z,16.05
2016-05-31T00:24:27.985Z,16.09
2016-05-31T00:24:37.985Z,15.97
2016-05-31T00:24:48.004Z,15.94
2016-05-31T00:24:58.020Z,16.08
2016-05-31T00:25:08.020Z,16.09
2016-05-31T00:25:18.020Z,16.07
2016-05-31T00:25:28.020Z,16.08
2016-05-31T00:25:38.036Z,16.02
2016-05-31T00:25:48.038Z,16.07
2016-05-31T00:25:58.038Z,16.08
2016-05-31T00:26:08.053Z,16.04
2016-05-31T00:26:18.053Z,16.05
2016-05-31T00:26:28.053Z,16
2016-05-31T00:26:38.069Z,16.05
2016-05-31T00:26:48.072Z,15.97
2016-05-31T00:26:58.072Z,15.96
2016-05-31T00:27:08.087Z,16
2016-05-31T00:27:18.087Z,16
2016-05-31T00:27:28.087Z,16.02
2016-05-31T00:27:38.103Z,15.97
2016-05-31T00:27:48.105Z,15.97
2016-05-31T00:27:58.105Z,15.97
2016-05-31T00:28:08.121Z,15.96
2016-05-31T00:28:18.121Z,15.97
2016-05-31T00:28:28.121Z,16.01
2016-05-31T00:28:38.136Z,15.96
2016-05-31T00:28:48.140Z,16
2016-05-31T00:28:58.140Z,16.02
2016-05-31T00:29:08.156Z,16.01
2016-05-31T00:29:18.156Z,15.93
2016-05-31T00:29:28.000Z,15.96
2016-05-31T00:29:38.187Z,16.04
2016-05-31T00:29:48.205Z,15.97
2016-05-31T00:29:58.174Z,16.02
2016-05-31T00:30:08.189Z,15.96
2016-05-31T00:30:18.189Z,16.08
2016-05-31T00:30:28.189Z,15.97
2016-05-31T00:30:38.189Z,16.02
2016-05-31T00:30:48.208Z,16.02
2016-05-31T00:30:58.208Z,16.02
2016-05-31T00:31:08.223Z,16.01
2016-05-31T00:31:18.067Z,15.97
2016-05-31T00:31:28.239Z,15.96
2016-05-31T00:31:38.223Z,15.94
2016-05-31T00:31:48.241Z,15.97
2016-05-31T00:31:58.241Z,16.02
2016-05-31T00:32:08.085Z,15.96
2016-05-31T00:32:18.257Z,16
2016-05-31T00:32:28.257Z,16.02
2016-05-31T00:32:38.257Z,16.02
2016-05-31T00:32:48.275Z,16.01
2016-05-31T00:32:58.275Z,15.96
2016-05-31T00:33:08.291Z,16
2016-05-31T00:33:18.291Z,16.05
2016-05-31T00:33:28.135Z,15.94
2016-05-31T00:33:38.291Z,16.02
2016-05-31T00:33:48.310Z,16
2016-05-31T00:33:58.310Z,15.97
2016-05-31T00:34:08.310Z,16.01
2016-05-31T00:34:18.169Z,15.96
2016-05-31T00:34:28.325Z,16
2016-05-31T00:34:38.325Z,16.02
2016-05-31T00:34:48.328Z,15.96
2016-05-31T00:34:58.344Z,16.01
2016-05-31T00:35:08.344Z,16.04
2016-05-31T00:35:18.359Z,16.02
2016-05-31T00:35:28.344Z,16
2016-05-31T00:35:38.359Z,16
2016-05-31T00:35:48.361Z,15.92
2016-05-31T00:35:58.361Z,15.92
2016-05-31T00:36:08.377Z,15.94
2016-05-31T00:36:18.377Z,16.01
2016-05-31T00:36:28.393Z,15.94
2016-05-31T00:36:38.393Z,15.94
2016-05-31T00:36:48.396Z,15.92
2016-05-31T00:36:58.411Z,15.97
2016-05-31T00:37:08.411Z,15.96
2016-05-31T00:37:18.271Z,15.93
2016-05-31T00:37:28.427Z,15.97
2016-05-31T00:37:38.443Z,16.02
2016-05-31T00:37:48.851Z,15.92
2016-05-31T00:37:59.116Z,15.96
2016-05-31T00:38:08.820Z,15.93
2016-05-31T00:38:18.523Z,15.97
2016-05-31T00:38:28.976Z,15.94
2016-05-31T00:38:38.445Z,16.02
2016-05-31T00:38:48.464Z,15.94
2016-05-31T00:38:58.464Z,15.96
2016-05-31T00:39:08.480Z,15.9
2016-05-31T00:39:18.480Z,15.93
2016-05-31T00:39:28.324Z,16.02
2016-05-31T00:39:38.339Z,15.89
2016-05-31T00:39:48.497Z,15.94
2016-05-31T00:39:58.513Z,15.97
2016-05-31T00:40:08.513Z,15.93
2016-05-31T00:40:18.357Z,15.97
2016-05-31T00:40:28.513Z,15.97
2016-05-31T00:40:38.529Z,15.97
2016-05-31T00:40:48.531Z,15.94
2016-05-31T00:40:58.531Z,15.89
2016-05-31T00:41:08.562Z,15.9
2016-05-31T00:41:18.546Z,15.94
2016-05-31T00:41:28.546Z,15.94
2016-05-31T00:41:38.406Z,15.94
2016-05-31T00:41:48.565Z,15.92
2016-05-31T00:41:58.565Z,15.93
2016-05-31T00:42:08.581Z,15.97
2016-05-31T00:42:18.581Z,15.9
2016-05-31T00:42:28.596Z,15.94
2016-05-31T00:42:38.596Z,15.9
2016-05-31T00:42:48.599Z,15.89
2016-05-31T00:42:58.615Z,15.93
2016-05-31T00:43:08.615Z,15.89
2016-05-31T00:43:18.459Z,15.84
2016-05-31T00:43:28.630Z,15.93
2016-05-31T00:43:38.615Z,15.9
2016-05-31T00:43:48.633Z,15.89
2016-05-31T00:43:58.633Z,15.92
2016-05-31T00:44:08.633Z,15.92
2016-05-31T00:44:18.649Z,15.9
2016-05-31T00:44:28.493Z,15.87
2016-05-31T00:44:38.665Z,15.94
2016-05-31T00:44:48.667Z,15.9
2016-05-31T00:44:58.667Z,15.86
2016-05-31T00:45:08.667Z,15.89
2016-05-31T00:45:18.682Z,15.92
2016-05-31T00:45:28.682Z,15.86
2016-05-31T00:45:38.682Z,15.9
2016-05-31T00:45:48.545Z,15.94
2016-05-31T00:45:58.701Z,15.92
2016-05-31T00:46:08.701Z,15.97
2016-05-31T00:46:18.701Z,15.9
2016-05-31T00:46:28.560Z,15.87
2016-05-31T00:46:38.717Z,15.9
2016-05-31T00:46:48.720Z,15.86
2016-05-31T00:46:58.735Z,15.92
2016-05-31T00:47:08.735Z,15.89
2016-05-31T00:47:18.751Z,15.9
2016-05-31T00:47:28.751Z,15.92
2016-05-31T00:47:38.751Z,15.87
2016-05-31T00:47:48.754Z,15.86
2016-05-31T00:47:58.769Z,15.92
2016-05-31T00:48:08.769Z,15.89
2016-05-31T00:48:18.769Z,15.9
2016-05-31T00:48:28.785Z,15.84
2016-05-31T00:48:38.785Z,15.84
2016-05-31T00:48:48.804Z,15.84
2016-05-31T00:48:58.804Z,15.84
2016-05-31T00:49:08.819Z,15.92
2016-05-31T00:49:18.804Z,15.83
2016-05-31T00:49:28.819Z,15.87
2016-05-31T00:49:38.819Z,15.87
2016-05-31T00:49:48.821Z,15.86
2016-05-31T00:49:58.837Z,15.86
2016-05-31T00:50:08.681Z,15.86
2016-05-31T00:50:18.837Z,15.86
2016-05-31T00:50:28.837Z,15.82
2016-05-31T00:50:38.853Z,15.86
2016-05-31T00:50:48.855Z,15.87
2016-05-31T00:50:58.855Z,15.86
2016-05-31T00:51:08.714Z,15.78
2016-05-31T00:51:18.870Z,15.8
2016-05-31T00:51:28.714Z,15.8
2016-05-31T00:51:38.886Z,15.84
2016-05-31T00:51:48.890Z,15.84
2016-05-31T00:51:58.905Z,15.78
2016-05-31T00:52:08.905Z,15.83
2016-05-31T00:52:18.765Z,15.87
2016-05-31T00:52:28.921Z,15.76
2016-05-31T00:52:38.765Z,15.89
2016-05-31T00:52:48.767Z,15.86
2016-05-31T00:52:58.923Z,15.84
2016-05-31T00:53:08.782Z,15.84
2016-05-31T00:53:18.939Z,15.86
2016-05-31T00:53:29.595Z,15.89
2016-05-31T00:53:38.954Z,15.86
2016-05-31T00:53:48.957Z,15.86
2016-05-31T00:53:58.957Z,15.87
2016-05-31T00:54:08.957Z,15.82
2016-05-31T00:54:18.973Z,15.78
2016-05-31T00:54:28.973Z,15.89
2016-05-31T00:54:38.973Z,15.8
2016-05-31T00:54:48.850Z,15.89
2016-05-31T00:54:59.006Z,15.82
2016-05-31T00:55:08.991Z,15.83
2016-05-31T00:55:19.006Z,15.84
2016-05-31T00:55:29.006Z,15.75
2016-05-31T00:55:39.006Z,15.8
2016-05-31T00:55:49.025Z,15.8
2016-05-31T00:55:59.025Z,15.86
2016-05-31T00:56:09.025Z,15.89
2016-05-31T00:56:19.040Z,15.84
2016-05-31T00:56:29.040Z,15.82
2016-05-31T00:56:39.040Z,15.72
2016-05-31T00:56:49.059Z,15.82
2016-05-31T00:56:59.059Z,15.82
2016-05-31T00:57:09.059Z,15.78
2016-05-31T00:57:19.075Z,15.75
2016-05-31T00:57:29.075Z,15.82
2016-05-31T00:57:39.075Z,15.84
2016-05-31T00:57:49.077Z,15.74
2016-05-31T00:57:59.092Z,15.75
2016-05-31T00:58:09.108Z,15.84
2016-05-31T00:58:19.092Z,15.78
2016-05-31T00:58:29.092Z,15.75
2016-05-31T00:58:39.108Z,15.8
2016-05-31T00:58:49.111Z,15.84
2016-05-31T00:58:59.127Z,15.75
2016-05-31T00:59:08.970Z,15.75
2016-05-31T00:59:19.127Z,15.86
2016-05-31T00:59:28.986Z,15.8
2016-05-31T00:59:39.158Z,15.8
2016-05-31T00:59:49.145Z,15.84
2016-05-31T00:59:59.145Z,15.75
2016-05-31T01:00:09.161Z,15.83
2016-05-31T01:00:19.161Z,15.8
2016-05-31T01:00:29.176Z,15.75
2016-05-31T01:00:39.176Z,15.72
2016-05-31T01:00:49.178Z,15.75
2016-05-31T01:00:59.194Z,15.75
2016-05-31T01:01:09.194Z,15.83
2016-05-31T01:01:19.053Z,15.84
2016-05-31T01:01:29.210Z,15.74
2016-05-31T01:01:39.210Z,15.74
2016-05-31T01:01:49.213Z,15.8
2016-05-31T01:01:59.213Z,15.8
2016-05-31T01:02:09.228Z,15.71
2016-05-31T01:02:19.228Z,15.8
2016-05-31T01:02:29.088Z,15.78
2016-05-31T01:02:39.244Z,15.76
2016-05-31T01:02:49.247Z,15.76
2016-05-31T01:02:59.247Z,15.82
2016-05-31T01:03:09.263Z,15.8
2016-05-31T01:03:19.263Z,15.76
2016-05-31T01:03:29.263Z,15.74
2016-05-31T01:03:39.278Z,15.78
2016-05-31T01:03:49.297Z,15.78
2016-05-31T01:03:59.281Z,15.74
2016-05-31T01:04:09.281Z,15.71
2016-05-31T01:04:19.141Z,15.86
2016-05-31T01:04:29.297Z,15.83
2016-05-31T01:04:39.156Z,15.71
2016-05-31T01:04:49.314Z,15.72
2016-05-31T01:04:59.314Z,15.78
2016-05-31T01:05:09.330Z,15.82
2016-05-31T01:05:19.174Z,15.74
2016-05-31T01:05:29.346Z,15.74
2016-05-31T01:05:39.346Z,15.75
2016-05-31T01:05:49.349Z,15.8
2016-05-31T01:05:59.349Z,15.75
2016-05-31T01:06:09.349Z,15.83
2016-05-31T01:06:19.364Z,15.8
2016-05-31T01:06:29.364Z,15.74
2016-05-31T01:06:39.380Z,15.83
2016-05-31T01:06:49.383Z,15.75
2016-05-31T01:06:59.383Z,15.83
2016-05-31T01:07:09.227Z,15.83
2016-05-31T01:07:20.055Z,15.74
2016-05-31T01:07:29.414Z,15.82
2016-05-31T01:07:39.852Z,15.78
2016-05-31T01:07:49.541Z,15.72
2016-05-31T01:07:59.682Z,15.78
2016-05-31T01:08:09.432Z,15.75
2016-05-31T01:08:19.432Z,15.75
2016-05-31T01:08:29.432Z,15.71
2016-05-31T01:08:39.432Z,15.78
2016-05-31T01:08:49.435Z,15.82
2016-05-31T01:08:59.450Z,15.84
2016-05-31T01:09:09.450Z,15.8
2016-05-31T01:09:19.466Z,15.76
2016-05-31T01:09:29.466Z,15.69
2016-05-31T01:09:39.466Z,15.78
2016-05-31T01:09:49.469Z,15.75
2016-05-31T01:09:59.485Z,15.72
2016-05-31T01:10:09.328Z,15.8
2016-05-31T01:10:19.485Z,15.72
2016-05-31T01:10:29.500Z,15.62
2016-05-31T01:10:39.500Z,15.78
2016-05-31T01:10:49.502Z,15.82
2016-05-31T01:10:59.518Z,15.67
2016-05-31T01:11:09.362Z,15.8
2016-05-31T01:11:19.534Z,15.74
2016-05-31T01:11:29.518Z,15.72
2016-05-31T01:11:39.534Z,15.8
2016-05-31T01:11:49.537Z,15.72
2016-05-31T01:11:59.537Z,15.71
2016-05-31T01:12:09.412Z,15.8
2016-05-31T01:12:19.552Z,15.82
2016-05-31T01:12:29.552Z,15.8
2016-05-31T01:12:39.583Z,15.72
2016-05-31T01:12:49.571Z,15.78
2016-05-31T01:12:59.571Z,15.75
2016-05-31T01:13:09.602Z,15.78
2016-05-31T01:13:19.586Z,15.8
2016-05-31T01:13:29.586Z,15.74
2016-05-31T01:13:39.602Z,15.76
2016-05-31T01:13:49.604Z,15.78
2016-05-31T01:13:59.604Z,15.82
2016-05-31T01:14:09.604Z,15.75
2016-05-31T01:14:19.620Z,15.64
2016-05-31T01:14:29.635Z,15.78
2016-05-31T01:14:39.620Z,15.82
2016-05-31T01:14:49.638Z,15.62
2016-05-31T01:14:59.638Z,15.69
2016-05-31T01:15:09.654Z,15.74
2016-05-31T01:15:19.654Z,15.71
2016-05-31T01:15:29.654Z,15.76
2016-05-31T01:15:39.654Z,15.72
2016-05-31T01:15:49.516Z,15.69
2016-05-31T01:15:59.673Z,15.74
2016-05-31T01:16:09.673Z,15.72
2016-05-31T01:16:19.688Z,15.8
2016-05-31T01:16:29.704Z,15.8
2016-05-31T01:16:39.688Z,15.72
2016-05-31T01:16:49.706Z,15.69
2016-05-31T01:16:59.706Z,15.8
2016-05-31T01:17:09.706Z,15.74
2016-05-31T01:17:19.721Z,15.76
2016-05-31T01:17:29.721Z,15.74
2016-05-31T01:17:39.721Z,15.74
2016-05-31T01:17:49.740Z,15.76
2016-05-31T01:17:59.740Z,15.68
2016-05-31T01:18:09.584Z,15.76
2016-05-31T01:18:19.599Z,15.71
2016-05-31T01:18:29.756Z,15.8
2016-05-31T01:18:39.615Z,15.71
2016-05-31T01:18:49.759Z,15.69
2016-05-31T01:18:59.774Z,15.82
2016-05-31T01:19:09.774Z,15.69
2016-05-31T01:19:19.618Z,15.65
2016-05-31T01:19:29.790Z,15.68
2016-05-31T01:19:39.649Z,15.75
2016-05-31T01:19:49.792Z,15.75
2016-05-31T01:19:59.808Z,15.8
2016-05-31T01:20:14.901Z,15.74
2016-05-31T01:20:24.886Z,15.75
2016-05-31T01:20:34.745Z,15.74
2016-05-31T01:20:44.745Z,15.8
2016-05-31T01:20:54.904Z,15.71
2016-05-31T01:21:04.764Z,15.8
2016-05-31T01:21:14.920Z,15.74
2016-05-31T01:21:24.920Z,15.74
2016-05-31T01:21:34.920Z,15.72
2016-05-31T01:21:44.936Z,15.67
2016-05-31T01:21:54.939Z,15.76
2016-05-31T01:22:04.939Z,15.71
2016-05-31T01:22:15.079Z,15.72
2016-05-31T01:22:28.798Z,15.78
2016-05-31T01:22:35.251Z,15.75
2016-05-31T01:22:44.970Z,15.69
2016-05-31T01:22:55.284Z,15.78
2016-05-31T01:23:05.050Z,15.69
2016-05-31T01:23:15.316Z,15.68
2016-05-31T01:23:25.019Z,15.71
2016-05-31T01:23:34.987Z,15.68
2016-05-31T01:23:45.081Z,15.68
2016-05-31T01:23:55.007Z,15.75
2016-05-31T01:24:05.023Z,15.65
2016-05-31T01:24:15.007Z,15.75
2016-05-31T01:24:25.226Z,15.72
2016-05-31T01:24:35.070Z,15.71
2016-05-31T01:24:45.038Z,15.67
2016-05-31T01:24:55.056Z,15.68
2016-05-31T01:25:05.072Z,15.68
2016-05-31T01:25:15.072Z,15.68
2016-05-31T01:25:25.072Z,15.75
2016-05-31T01:25:35.072Z,15.75
2016-05-31T01:25:44.993Z,15.71
2016-05-31T01:25:55.075Z,15.68
2016-05-31T01:26:05.075Z,15.67
2016-05-31T01:26:15.075Z,15.67
2016-05-31T01:26:25.121Z,15.64
2016-05-31T01:26:35.090Z,15.72
2016-05-31T01:26:45.090Z,15.69
2016-05-31T01:26:55.123Z,15.67
2016-05-31T01:27:05.655Z,15.68
2016-05-31T01:27:15.483Z,15.72
2016-05-31T01:27:25.108Z,15.71
2016-05-31T01:27:35.123Z,15.69
2016-05-31T01:27:45.123Z,15.78
2016-05-31T01:27:55.142Z,15.68
2016-05-31T01:28:05.142Z,15.75
2016-05-31T01:28:15.142Z,15.69
2016-05-31T01:28:25.142Z,15.68
2016-05-31T01:28:35.158Z,15.74
2016-05-31T01:28:45.158Z,15.78
2016-05-31T01:28:55.176Z,15.69
2016-05-31T01:29:05.176Z,15.76
2016-05-31T01:29:15.176Z,15.65
2016-05-31T01:29:25.176Z,15.69
2016-05-31T01:29:35.176Z,15.82
2016-05-31T01:29:45.192Z,15.8
2016-05-31T01:29:55.211Z,15.76
2016-05-31T01:30:05.195Z,15.71
2016-05-31T01:30:15.195Z,15.65
2016-05-31T01:30:25.211Z,15.68
2016-05-31T01:30:35.211Z,15.74
2016-05-31T01:30:45.226Z,15.76
2016-05-31T01:30:55.228Z,15.74
2016-05-31T01:31:05.072Z,15.75
2016-05-31T01:31:15.244Z,15.74
2016-05-31T01:31:25.244Z,15.78
2016-05-31T01:31:35.244Z,15.8
2016-05-31T01:31:45.259Z,15.78
2016-05-31T01:31:55.262Z,15.8
2016-05-31T01:32:05.278Z,15.78
2016-05-31T01:32:15.122Z,15.69
2016-05-31T01:32:25.278Z,15.76
2016-05-31T01:32:35.294Z,15.78
2016-05-31T01:32:45.294Z,15.74
2016-05-31T01:32:55.296Z,15.74
2016-05-31T01:33:05.139Z,15.76
2016-05-31T01:33:15.296Z,15.74
2016-05-31T01:33:25.311Z,15.69
2016-05-31T01:33:35.311Z,15.67
2016-05-31T01:33:45.311Z,15.71
2016-05-31T01:33:55.331Z,15.65
2016-05-31T01:34:05.331Z,15.69
2016-05-31T01:34:15.331Z,15.74
2016-05-31T01:34:25.347Z,15.76
2016-05-31T01:34:35.347Z,15.68
2016-05-31T01:34:45.206Z,15.71
2016-05-31T01:34:55.364Z,15.69
2016-05-31T01:35:05.364Z,15.71
2016-05-31T01:35:15.364Z,15.71
2016-05-31T01:35:25.364Z,15.83
2016-05-31T01:35:35.224Z,15.76
2016-05-31T01:35:45.380Z,15.71
2016-05-31T01:35:55.241Z,15.78
2016-05-31T01:36:05.397Z,15.8
2016-05-31T01:36:15.257Z,15.75
2016-05-31T01:36:25.397Z,15.8
2016-05-31T01:36:35.257Z,15.75
2016-05-31T01:36:45.413Z,15.67
2016-05-31T01:36:55.433Z,15.8
2016-05-31T01:37:05.433Z,15.74
2016-05-31T01:37:15.433Z,15.78
2016-05-31T01:37:26.058Z,15.74
2016-05-31T01:37:35.308Z,15.71
2016-05-31T01:37:45.448Z,15.76
2016-05-31T01:37:55.466Z,15.78
2016-05-31T01:38:05.466Z,15.72
2016-05-31T01:38:15.497Z,15.71
2016-05-31T01:38:25.607Z,15.74
2016-05-31T01:38:35.482Z,15.71
2016-05-31T01:38:45.325Z,15.69
2016-05-31T01:38:55.328Z,15.74
2016-05-31T01:39:05.500Z,15.69
2016-05-31T01:39:15.500Z,15.71
2016-05-31T01:39:25.344Z,15.74
2016-05-31T01:39:35.500Z,15.74
2016-05-31T01:39:45.360Z,15.67
2016-05-31T01:39:55.518Z,15.71
2016-05-31T01:40:05.518Z,15.68
2016-05-31T01:40:15.533Z,15.71
2016-05-31T01:40:25.533Z,15.76
2016-05-31T01:40:35.393Z,15.62
2016-05-31T01:40:45.549Z,15.68
2016-05-31T01:40:55.552Z,15.67
2016-05-31T01:41:05.568Z,15.78
2016-05-31T01:41:15.568Z,15.71
2016-05-31T01:41:25.568Z,15.6
2016-05-31T01:41:35.568Z,15.71
2016-05-31T01:41:45.583Z,15.71
2016-05-31T01:41:55.429Z,15.69
2016-05-31T01:42:05.585Z,15.64
2016-05-31T01:42:15.601Z,15.65
2016-05-31T01:42:25.601Z,15.74
2016-05-31T01:42:35.601Z,15.71
2016-05-31T01:42:45.617Z,15.76
2016-05-31T01:42:55.620Z,15.76
2016-05-31T01:43:05.620Z,15.71
2016-05-31T01:43:15.620Z,15.71
2016-05-31T01:43:25.635Z,15.65
2016-05-31T01:43:35.635Z,15.76
2016-05-31T01:43:45.635Z,15.71
2016-05-31T01:43:55.654Z,15.67
2016-05-31T01:44:05.654Z,15.71
2016-05-31T01:44:15.654Z,15.62
2016-05-31T01:44:25.669Z,15.57
2016-05-31T01:44:35.669Z,15.74
2016-05-31T01:44:45.669Z,15.65
2016-05-31T01:44:55.688Z,15.71
2016-05-31T01:45:05.688Z,15.68
2016-05-31T01:45:15.688Z,15.65
2016-05-31T01:45:25.688Z,15.67
2016-05-31T01:45:35.547Z,15.65
2016-05-31T01:45:45.704Z,15.6
2016-05-31T01:45:55.721Z,15.6
2016-05-31T01:46:05.721Z,15.6
2016-05-31T01:46:15.721Z,15.62
2016-05-31T01:46:25.721Z,15.6
2016-05-31T01:46:35.737Z,15.56
2016-05-31T01:46:45.737Z,15.54
2016-05-31T01:46:55.740Z,15.57
2016-05-31T01:47:05.756Z,15.65
2016-05-31T01:47:15.599Z,15.54
2016-05-31T01:47:25.756Z,15.56
2016-05-31T01:47:35.771Z,15.59
2016-05-31T01:47:45.771Z,15.62
2016-05-31T01:47:55.790Z,15.54
2016-05-31T01:48:05.774Z,15.59
2016-05-31T01:48:15.790Z,15.56
2016-05-31T01:48:25.790Z,15.62
2016-05-31T01:48:35.805Z,15.54
2016-05-31T01:48:45.805Z,15.56
2016-05-31T01:48:55.808Z,15.56
2016-05-31T01:49:05.808Z,15.57
2016-05-31T01:49:15.824Z,15.57
2016-05-31T01:49:25.824Z,15.57
2016-05-31T01:49:35.840Z,15.64
2016-05-31T01:49:45.683Z,15.59
2016-05-31T01:49:55.857Z,15.57
2016-05-31T01:50:05.842Z,15.62
2016-05-31T01:50:15.857Z,15.54
2016-05-31T01:50:25.857Z,15.5
2016-05-31T01:50:35.857Z,15.56
2016-05-31T01:50:45.873Z,15.59
2016-05-31T01:50:55.876Z,15.59
2016-05-31T01:51:05.876Z,15.56
2016-05-31T01:51:15.735Z,15.56
2016-05-31T01:51:25.892Z,15.6
2016-05-31T01:51:35.735Z,15.59
2016-05-31T01:51:45.907Z,15.56
2016-05-31T01:51:55.910Z,15.54
2016-05-31T01:52:05.910Z,15.53
2016-05-31T01:52:16.082Z,15.57
2016-05-31T01:52:27.410Z,15.54
2016-05-31T01:52:35.941Z,15.59
2016-05-31T01:52:46.051Z,15.57
2016-05-31T01:52:55.959Z,15.56
2016-05-31T01:53:06.084Z,15.53
2016-05-31T01:53:15.943Z,15.46
2016-05-31T01:53:25.975Z,15.56
2016-05-31T01:53:35.959Z,15.56
2016-05-31T01:53:45.975Z,15.57
2016-05-31T01:53:55.978Z,15.59
2016-05-31T01:54:05.978Z,15.44
2016-05-31T01:54:15.978Z,15.57
2016-05-31T01:54:25.837Z,15.53
2016-05-31T01:54:35.993Z,15.53
2016-05-31T01:54:45.993Z,15.54
2016-05-31T01:54:56.012Z,15.54
2016-05-31T01:55:06.012Z,15.57
2016-05-31T01:55:16.012Z,15.53
2016-05-31T01:55:26.028Z,15.51
2016-05-31T01:55:36.028Z,15.5
2016-05-31T01:55:46.043Z,15.53
2016-05-31T01:55:56.046Z,15.5
2016-05-31T01:56:06.046Z,15.46
2016-05-31T01:56:15.890Z,15.44
2016-05-31T01:56:26.062Z,15.41
2016-05-31T01:56:36.062Z,15.41
2016-05-31T01:56:46.062Z,15.51
2016-05-31T01:56:56.064Z,15.54
2016-05-31T01:57:05.923Z,15.47
2016-05-31T01:57:16.079Z,15.39
2016-05-31T01:57:26.079Z,15.54
2016-05-31T01:57:36.095Z,15.44
2016-05-31T01:57:46.095Z,15.46
2016-05-31T01:57:56.098Z,15.46
2016-05-31T01:58:06.114Z,15.54
2016-05-31T01:58:16.114Z,15.5
2016-05-31T01:58:26.114Z,15.56
2016-05-31T01:58:36.129Z,15.43
2016-05-31T01:58:46.129Z,15.53
2016-05-31T01:58:56.131Z,15.53
2016-05-31T01:59:06.147Z,15.36
2016-05-31T01:59:16.147Z,15.47
2016-05-31T01:59:26.147Z,15.54
2016-05-31T01:59:36.147Z,15.53
2016-05-31T01:59:46.163Z,15.47
2016-05-31T01:59:56.166Z,15.49
2016-05-31T02:00:06.166Z,15.53
2016-05-31T02:00:16.181Z,15.5
2016-05-31T02:00:26.181Z,15.53
2016-05-31T02:00:36.181Z,15.51
2016-05-31T02:00:46.197Z,15.49
2016-05-31T02:00:56.200Z,15.47
2016-05-31T02:01:06.200Z,15.5
2016-05-31T02:01:16.215Z,15.47
2016-05-31T02:01:26.215Z,15.51
2016-05-31T02:01:36.215Z,15.46
2016-05-31T02:01:46.059Z,15.49
2016-05-31T02:01:56.234Z,15.53
2016-05-31T02:02:06.234Z,15.44
2016-05-31T02:02:16.250Z,15.47
2016-05-31T02:02:26.250Z,15.46
2016-05-31T02:02:36.093Z,15.47
2016-05-31T02:02:46.250Z,15.47
2016-05-31T02:02:56.283Z,15.5
2016-05-31T02:03:06.267Z,15.46
2016-05-31T02:03:16.267Z,15.46
2016-05-31T02:03:26.267Z,15.44
2016-05-31T02:03:36.283Z,15.46
2016-05-31T02:03:46.142Z,15.47
2016-05-31T02:03:56.286Z,15.46
2016-05-31T02:04:06.302Z,15.39
2016-05-31T02:04:16.302Z,15.49
2016-05-31T02:04:26.317Z,15.41
2016-05-31T02:04:36.317Z,15.47
2016-05-31T02:04:46.317Z,15.43
2016-05-31T02:04:56.319Z,15.47
2016-05-31T02:05:06.335Z,15.41
2016-05-31T02:05:16.335Z,15.49
2016-05-31T02:05:26.335Z,15.38
2016-05-31T02:05:36.194Z,15.46
2016-05-31T02:05:46.210Z,15.44
2016-05-31T02:05:56.370Z,15.41
2016-05-31T02:06:06.370Z,15.43
2016-05-31T02:06:16.370Z,15.41
2016-05-31T02:06:26.386Z,15.49
2016-05-31T02:06:36.386Z,15.47
2016-05-31T02:06:46.386Z,15.46
2016-05-31T02:06:56.403Z,15.39
2016-05-31T02:07:06.388Z,15.39
2016-05-31T02:07:16.419Z,15.47
2016-05-31T02:07:26.778Z,15.41
2016-05-31T02:07:36.544Z,15.41
2016-05-31T02:07:46.263Z,15.43
2016-05-31T02:07:57.468Z,15.38
2016-05-31T02:08:06.437Z,15.36
2016-05-31T02:08:16.452Z,15.44
2016-05-31T02:08:26.468Z,15.39
2016-05-31T02:08:36.437Z,15.46
2016-05-31T02:08:46.452Z,15.39
2016-05-31T02:08:56.455Z,15.35
2016-05-31T02:09:06.455Z,15.44
2016-05-31T02:09:16.471Z,15.41
2016-05-31T02:09:26.471Z,15.39
2016-05-31T02:09:36.471Z,15.39